Time;durP1;ratioP1;P1;durP2;ratioP2;P2;SDS_P1;SDS_P2;PMS_P1;PMS_P2;Temp;Humidity;BMP_temperature;BMP_pressure;BME280_temperature;BME280_humidity;BME280_pressure;Samples;Min_cycle;Max_cycle;Signal;HPM_P1;HPM_P2
2021/03/21 00:02:17;;;;;;;70.10;34.65;;;;;;;;;;5002685;28;20109;-45
2021/03/21 00:04:43;;;;;;;48.80;25.88;;;;;;;;;;5001822;28;20079;-46
2021/03/21 00:07:09;;;;;;;71.03;34.95;;;;;;;;;;5001121;28;20037;-46
2021/03/21 00:09:35;;;;;;;68.50;31.80;;;;;;;;;;5002000;28;20506;-46
2021/03/21 00:12:04;;;;;;;87.85;37.55;;;;;;;;;;5001528;28;20103;-46
2021/03/21 00:14:31;;;;;;;84.88;38.40;;;;;;;;;;5002025;28;20121;-46
2021/03/21 00:16:57;;;;;;;89.18;41.13;;;;;;;;;;5001895;28;20018;-46
2021/03/21 00:19:24;;;;;;;77.35;32.35;;;;;;;;;;5001860;28;20029;-45
2021/03/21 00:21:52;;;;;;;75.50;31.95;;;;;;;;;;5002692;28;20025;-45
2021/03/21 00:24:18;;;;;;;67.97;30.23;;;;;;;;;;5002676;28;20533;-45
2021/03/21 00:26:45;;;;;;;59.28;27.02;;;;;;;;;;5001564;28;20021;-46
2021/03/21 00:29:11;;;;;;;70.22;34.55;;;;;;;;;;5000211;28;20405;-45
2021/03/21 00:31:37;;;;;;;62.85;30.30;;;;;;;;;;5002786;28;20554;-46
2021/03/21 00:34:04;;;;;;;84.75;40.38;;;;;;;;;;5012744;28;20025;-47
2021/03/21 00:36:31;;;;;;;93.22;48.20;;;;;;;;;;5001492;28;20093;-47
2021/03/21 00:38:57;;;;;;;78.65;39.00;;;;;;;;;;5001729;28;20026;-47
2021/03/21 00:41:27;;;;;;;81.13;39.97;;;;;;;;;;5002468;28;20077;-47
2021/03/21 00:43:55;;;;;;;62.65;30.58;;;;;;;;;;5001643;28;20033;-46
2021/03/21 00:46:24;;;;;;;34.15;19.15;;;;;;;;;;5000492;28;20064;-45
2021/03/21 00:48:50;;;;;;;60.33;30.77;;;;;;;;;;5001490;28;20164;-46
2021/03/21 00:51:17;;;;;;;48.53;25.45;;;;;;;;;;5001787;28;20501;-45
2021/03/21 00:53:43;;;;;;;50.00;25.40;;;;;;;;;;5001449;28;20010;-46
2021/03/21 00:56:10;;;;;;;66.80;34.15;;;;;;;;;;5001038;28;20052;-44
2021/03/21 00:58:37;;;;;;;53.40;28.00;;;;;;;;;;5002542;28;20018;-46
2021/03/21 01:01:03;;;;;;;73.95;34.35;;;;;;;;;;5001416;28;20025;-46
2021/03/21 01:03:29;;;;;;;84.55;39.25;;;;;;;;;;5001944;28;20121;-45
2021/03/21 01:06:00;;;;;;;109.43;47.83;;;;;;;;;;5001333;28;20029;-45
2021/03/21 01:08:28;;;;;;;117.63;52.65;;;;;;;;;;5001174;28;20022;-45
2021/03/21 01:10:56;;;;;;;154.60;68.93;;;;;;;;;;5002543;28;20469;-45
2021/03/21 01:13:22;;;;;;;129.40;53.60;;;;;;;;;;5005231;28;20029;-45
2021/03/21 01:15:49;;;;;;;126.88;52.60;;;;;;;;;;5003459;28;20021;-46
2021/03/21 01:18:16;;;;;;;158.55;65.65;;;;;;;;;;5004915;28;20104;-47
2021/03/21 01:20:42;;;;;;;145.55;65.35;;;;;;;;;;5004555;28;20029;-47
2021/03/21 01:23:08;;;;;;;137.00;57.20;;;;;;;;;;5005023;28;20043;-47
2021/03/21 01:25:35;;;;;;;148.73;61.22;;;;;;;;;;5004380;28;20034;-46
2021/03/21 01:28:03;;;;;;;137.77;56.80;;;;;;;;;;5004443;28;20075;-46
2021/03/21 01:30:29;;;;;;;136.00;56.17;;;;;;;;;;5004470;28;20022;-47
2021/03/21 01:32:55;;;;;;;137.60;59.55;;;;;;;;;;5005412;28;20017;-44
2021/03/21 01:35:22;;;;;;;135.32;57.45;;;;;;;;;;5002942;28;20026;-46
2021/03/21 01:37:48;;;;;;;124.53;52.38;;;;;;;;;;5004454;28;20551;-47
2021/03/21 01:40:16;;;;;;;108.25;46.30;;;;;;;;;;5004180;28;20513;-46
2021/03/21 01:42:44;;;;;;;112.13;47.75;;;;;;;;;;5004288;28;20474;-46
2021/03/21 01:45:31;;;;;;;147.70;66.70;;;;;;;;;;5006403;28;20042;-47
2021/03/21 01:47:59;;;;;;;101.20;45.53;;;;;;;;;;5003694;28;20547;-47
2021/03/21 01:50:39;;;;;;;141.20;63.60;;;;;;;;;;5004172;28;20032;-47
2021/03/21 01:53:06;;;;;;;128.07;58.38;;;;;;;;;;5003533;28;20412;-45
2021/03/21 01:55:32;;;;;;;108.45;46.10;;;;;;;;;;5001313;28;20023;-47
2021/03/21 01:57:58;;;;;;;118.60;53.22;;;;;;;;;;5005401;28;20033;-47
2021/03/21 02:00:26;;;;;;;135.73;62.60;;;;;;;;;;5004011;28;20085;-45
2021/03/21 02:02:52;;;;;;;116.43;50.95;;;;;;;;;;5003820;28;20112;-47
2021/03/21 02:05:18;;;;;;;106.68;48.95;;;;;;;;;;5003010;28;20342;-47
2021/03/21 02:07:47;;;;;;;109.57;49.95;;;;;;;;;;5006760;28;20472;-47
2021/03/21 02:10:13;;;;;;;123.97;55.63;;;;;;;;;;5015083;28;20033;-46
2021/03/21 02:13:00;;;;;;;109.22;50.92;;;;;;;;;;5015574;28;20026;-45
2021/03/21 02:15:34;;;;;;;105.00;48.90;;;;;;;;;;5014074;28;20017;-44
2021/03/21 02:18:05;;;;;;;79.18;37.25;;;;;;;;;;5012614;28;20113;-47
2021/03/21 02:20:40;;;;;;;93.63;44.20;;;;;;;;;;5013093;28;20128;-47
2021/03/21 02:23:12;;;;;;;91.47;41.08;;;;;;;;;;5013156;28;20026;-46
2021/03/21 02:25:51;;;;;;;95.20;44.80;;;;;;;;;;5012341;28;20049;-47
2021/03/21 02:28:26;;;;;;;105.75;49.92;;;;;;;;;;5014237;28;20018;-47
2021/03/21 02:30:53;;;;;;;82.85;39.75;;;;;;;;;;5014127;28;20037;-48
2021/03/21 02:33:29;;;;;;;95.43;44.38;;;;;;;;;;5014839;28;20018;-46
2021/03/21 02:35:55;;;;;;;95.93;44.60;;;;;;;;;;5015177;28;20054;-46
2021/03/21 02:38:25;;;;;;;95.60;42.72;;;;;;;;;;5014860;28;20022;-47
2021/03/21 02:40:57;;;;;;;74.65;36.97;;;;;;;;;;5014733;28;20034;-48
2021/03/21 02:43:23;;;;;;;;;;;;;;;;;;5015198;28;20105;-44
2021/03/21 02:45:51;;;;;;;83.35;38.13;;;;;;;;;;5014751;28;20338;-47
2021/03/21 02:48:21;;;;;;;93.07;45.80;;;;;;;;;;5014694;28;20037;-46
2021/03/21 02:50:50;;;;;;;65.22;33.10;;;;;;;;;;5014735;28;20418;-47
2021/03/21 02:53:18;;;;;;;54.38;28.25;;;;;;;;;;5014654;28;20034;-47
2021/03/21 02:55:46;;;;;;;50.03;26.45;;;;;;;;;;5014439;28;20117;-47
2021/03/21 02:58:12;;;;;;;71.18;33.95;;;;;;;;;;5014346;28;20116;-47
2021/03/21 03:00:41;;;;;;;55.72;28.85;;;;;;;;;;5014147;28;20026;-46
2021/03/21 03:03:10;;;;;;;51.10;26.85;;;;;;;;;;5014410;28;20484;-46
2021/03/21 03:05:43;;;;;;;52.40;27.58;;;;;;;;;;5014259;28;20037;-46
2021/03/21 03:08:09;;;;;;;68.00;33.58;;;;;;;;;;5014305;28;20508;-47
2021/03/21 03:10:40;;;;;;;59.47;31.10;;;;;;;;;;5013846;28;20115;-47
2021/03/21 03:13:28;;;;;;;59.95;28.80;;;;;;;;;;5014174;28;20017;-47
2021/03/21 03:15:55;;;;;;;62.88;28.45;;;;;;;;;;5014288;28;20076;-46
2021/03/21 03:18:22;;;;;;;66.78;33.33;;;;;;;;;;5013986;28;20433;-45
2021/03/21 03:20:53;;;;;;;78.13;35.08;;;;;;;;;;5014145;28;20462;-46
2021/03/21 03:23:19;;;;;;;91.43;38.97;;;;;;;;;;5014007;28;20030;-46
2021/03/21 03:25:52;;;;;;;105.82;47.35;;;;;;;;;;5014112;28;20073;-46
2021/03/21 03:28:44;;;;;;;100.95;47.55;;;;;;;;;;5013963;28;20053;-46
2021/03/21 03:31:24;;;;;;;89.18;41.25;;;;;;;;;;4998277;28;20038;-47
2021/03/21 03:33:53;;;;;;;77.10;38.50;;;;;;;;;;5013449;28;20025;-46
2021/03/21 03:36:19;;;;;;;82.40;38.65;;;;;;;;;;5013812;28;20029;-47
2021/03/21 03:38:47;;;;;;;87.30;42.67;;;;;;;;;;5013737;28;20354;-47
2021/03/21 03:41:21;;;;;;;82.07;37.03;;;;;;;;;;5013566;28;20044;-47
2021/03/21 03:44:03;;;;;;;74.55;35.58;;;;;;;;;;5013640;28;20104;-47
2021/03/21 03:46:45;;;;;;;90.18;40.08;;;;;;;;;;5013526;28;20367;-47
2021/03/21 03:49:17;;;;;;;88.30;38.72;;;;;;;;;;5013673;28;20024;-47
2021/03/21 03:52:04;;;;;;;82.18;37.30;;;;;;;;;;5013731;28;20036;-47
2021/03/21 03:54:35;;;;;;;79.15;37.60;;;;;;;;;;5013539;28;20029;-47
2021/03/21 03:57:14;;;;;;;85.00;38.63;;;;;;;;;;5013822;28;20026;-47
2021/03/21 04:00:04;;;;;;;92.00;40.08;;;;;;;;;;5013659;28;20045;-46
2021/03/21 04:02:39;;;;;;;136.18;54.00;;;;;;;;;;5013751;28;20367;-47
2021/03/21 04:05:18;;;;;;;144.18;59.05;;;;;;;;;;5013267;28;20389;-46
2021/03/21 04:07:48;;;;;;;156.07;62.92;;;;;;;;;;5012229;28;20025;-46
2021/03/21 04:10:50;;;;;;;146.02;61.33;;;;;;;;;;5013320;28;20037;-46
2021/03/21 04:13:27;;;;;;;161.88;67.03;;;;;;;;;;4992154;28;20518;-46
2021/03/21 04:15:54;;;;;;;156.40;66.40;;;;;;;;;;4991696;28;20139;-47
2021/03/21 04:18:23;;;;;;;142.80;62.03;;;;;;;;;;4991810;28;20037;-47
2021/03/21 04:20:54;;;;;;;99.22;46.85;;;;;;;;;;4991607;28;20439;-47
2021/03/21 04:23:39;;;;;;;69.70;35.08;;;;;;;;;;4991659;28;20030;-47
2021/03/21 04:26:07;;;;;;;52.97;27.60;;;;;;;;;;4991654;28;20491;-47
2021/03/21 04:28:42;;;;;;;43.95;23.48;;;;;;;;;;4991564;28;20038;-48
2021/03/21 04:31:11;;;;;;;44.92;24.35;;;;;;;;;;4991537;28;20034;-47
2021/03/21 04:33:45;;;;;;;44.75;22.92;;;;;;;;;;4991605;28;20046;-47
2021/03/21 04:36:26;;;;;;;41.17;23.17;;;;;;;;;;4991614;28;20028;-46
2021/03/21 04:38:55;;;;;;;44.50;23.10;;;;;;;;;;4991671;28;20065;-47
2021/03/21 04:41:44;;;;;;;46.55;24.83;;;;;;;;;;4991334;28;20038;-47
2021/03/21 04:44:16;;;;;;;43.97;24.67;;;;;;;;;;4933569;29;20091;-47
2021/03/21 04:46:50;;;;;;;45.97;24.70;;;;;;;;;;4947595;28;20035;-47
2021/03/21 04:49:18;;;;;;;45.88;25.25;;;;;;;;;;4975760;28;20042;-47
2021/03/21 04:51:45;;;;;;;46.00;24.77;;;;;;;;;;4975873;28;20027;-46
2021/03/21 04:54:28;;;;;;;43.35;22.70;;;;;;;;;;4975579;28;20035;-46
2021/03/21 04:56:58;;;;;;;43.25;22.70;;;;;;;;;;4975551;28;20038;-47
2021/03/21 04:59:32;;;;;;;46.03;24.08;;;;;;;;;;4975638;28;20031;-47
2021/03/21 05:02:08;;;;;;;45.97;25.63;;;;;;;;;;4975516;28;20050;-47
2021/03/21 05:04:37;;;;;;;45.22;23.40;;;;;;;;;;4975250;28;20031;-47
2021/03/21 05:07:11;;;;;;;50.67;24.65;;;;;;;;;;4975472;28;20031;-48
2021/03/21 05:09:45;;;;;;;48.50;25.75;;;;;;;;;;4975442;28;20035;-47
2021/03/21 05:12:11;;;;;;;43.67;24.90;;;;;;;;;;4975062;28;20109;-48
2021/03/21 05:15:03;;;;;;;46.70;24.73;;;;;;;;;;4975377;28;20050;-45
2021/03/21 05:17:48;;;;;;;41.30;22.83;;;;;;;;;;4917835;29;20040;-48
2021/03/21 05:20:14;;;;;;;62.22;31.92;;;;;;;;;;4919851;29;20028;-49
2021/03/21 05:22:43;;;;;;;81.15;36.70;;;;;;;;;;4936756;29;20047;-46
2021/03/21 05:25:13;;;;;;;42.72;23.25;;;;;;;;;;4936374;29;20495;-46
2021/03/21 05:27:43;;;;;;;41.80;22.80;;;;;;;;;;4936661;29;20400;-46
2021/03/21 05:30:18;;;;;;;42.63;23.88;;;;;;;;;;4936526;29;20039;-45
2021/03/21 05:32:48;;;;;;;39.20;23.10;;;;;;;;;;4936689;29;20071;-45
2021/03/21 05:35:21;;;;;;;39.85;22.95;;;;;;;;;;4936550;29;20469;-46
2021/03/21 05:37:47;;;;;;;38.80;21.95;;;;;;;;;;4936573;29;20119;-46
2021/03/21 05:40:13;;;;;;;36.17;20.85;;;;;;;;;;4936268;29;20039;-48
2021/03/21 05:42:45;;;;;;;35.03;20.38;;;;;;;;;;4936439;29;20028;-46
2021/03/21 05:45:20;;;;;;;32.88;20.13;;;;;;;;;;4936432;29;20048;-48
2021/03/21 05:48:05;;;;;;;37.80;21.45;;;;;;;;;;4936330;29;20036;-47
2021/03/21 05:50:40;;;;;;;42.90;23.83;;;;;;;;;;4936196;29;20036;-47
2021/03/21 05:53:09;;;;;;;31.83;20.33;;;;;;;;;;4937989;28;20135;-47
2021/03/21 05:55:35;;;;;;;31.23;20.10;;;;;;;;;;5015707;28;20037;-46
2021/03/21 05:58:01;;;;;;;29.80;19.58;;;;;;;;;;5015436;28;20089;-47
2021/03/21 06:00:40;;;;;;;30.33;19.90;;;;;;;;;;5015564;28;20029;-47
2021/03/21 06:03:12;;;;;;;29.30;19.02;;;;;;;;;;5014377;28;20057;-46
2021/03/21 06:06:17;;;;;;;27.40;19.23;;;;;;;;;;5015509;28;20452;-46
2021/03/21 06:08:49;;;;;;;27.50;18.17;;;;;;;;;;4993751;28;20034;-46
2021/03/21 06:11:15;;;;;;;28.58;19.65;;;;;;;;;;4993302;28;20058;-47
2021/03/21 06:13:41;;;;;;;29.02;19.85;;;;;;;;;;4993626;28;20045;-47
2021/03/21 06:16:09;;;;;;;33.95;21.17;;;;;;;;;;4993578;28;20022;-48
2021/03/21 06:18:50;;;;;;;28.65;20.60;;;;;;;;;;4993671;28;20038;-47
2021/03/21 06:21:16;;;;;;;30.20;20.80;;;;;;;;;;4993676;28;20040;-47
2021/03/21 06:23:53;;;;;;;38.20;23.27;;;;;;;;;;4993313;28;20042;-48
2021/03/21 06:26:22;;;;;;;36.20;22.20;;;;;;;;;;4993618;28;20134;-47
2021/03/21 06:28:51;;;;;;;37.58;21.67;;;;;;;;;;4993290;28;20034;-47
2021/03/21 06:31:23;;;;;;;30.92;19.40;;;;;;;;;;4993280;28;20030;-48
2021/03/21 06:34:06;;;;;;;33.15;20.77;;;;;;;;;;4993269;28;20100;-48
2021/03/21 06:36:46;;;;;;;35.40;20.42;;;;;;;;;;4993204;28;20033;-48
2021/03/21 06:39:19;;;;;;;35.03;20.70;;;;;;;;;;5002109;28;20159;-47
2021/03/21 06:41:45;;;;;;;55.85;29.38;;;;;;;;;;5014520;28;20291;-47
2021/03/21 06:44:14;;;;;;;27.48;20.20;;;;;;;;;;5014650;28;20116;-46
2021/03/21 06:46:55;;;;;;;31.17;22.63;;;;;;;;;;5014440;28;20090;-48
2021/03/21 06:49:33;;;;;;;42.13;28.08;;;;;;;;;;5014695;28;20030;-48
2021/03/21 06:52:18;;;;;;;41.15;30.50;;;;;;;;;;5014595;28;20038;-47
2021/03/21 06:55:00;;;;;;;36.00;24.63;;;;;;;;;;5014557;28;20534;-48
2021/03/21 06:57:29;;;;;;;33.58;28.23;;;;;;;;;;5014283;28;20033;-47
2021/03/21 07:00:15;;;;;;;31.67;23.13;;;;;;;;;;5014465;28;20033;-48
2021/03/21 07:02:47;;;;;;;33.92;22.52;;;;;;;;;;5014304;28;20033;-48
2021/03/21 07:05:23;;;;;;;39.25;28.33;;;;;;;;;;5014059;28;20040;-48
2021/03/21 07:08:07;;;;;;;36.95;27.00;;;;;;;;;;5013795;28;20025;-47
2021/03/21 07:10:51;;;;;;;30.52;23.52;;;;;;;;;;5013926;28;20046;-47
2021/03/21 07:13:36;;;;;;;36.30;28.17;;;;;;;;;;5014170;28;20037;-48
2021/03/21 07:16:20;;;;;;;33.22;26.25;;;;;;;;;;5014113;28;20390;-48
2021/03/21 07:18:59;;;;;;;32.92;29.38;;;;;;;;;;5014243;28;20056;-47
2021/03/21 07:21:44;;;;;;;36.33;32.72;;;;;;;;;;5014042;28;20022;-47
2021/03/21 07:24:18;;;;;;;57.05;52.05;;;;;;;;;;5013854;28;20028;-48
2021/03/21 07:26:44;;;;;;;1999.90;999.90;;;;;;;;;;5013909;28;20029;-47
2021/03/21 07:29:17;;;;;;;64.78;59.60;;;;;;;;;;5013911;28;20101;-47
2021/03/21 07:31:53;;;;;;;96.68;90.07;;;;;;;;;;5013862;28;20030;-47
2021/03/21 07:34:40;;;;;;;135.27;126.68;;;;;;;;;;5013701;28;20393;-48
2021/03/21 07:37:32;;;;;;;88.55;82.32;;;;;;;;;;5013945;28;20021;-48
2021/03/21 07:40:33;;;;;;;84.32;78.25;;;;;;;;;;5011815;28;20482;-47
2021/03/21 07:43:02;;;;;;;58.15;53.55;;;;;;;;;;4992216;28;20524;-47
2021/03/21 07:45:37;;;;;;;81.35;75.50;;;;;;;;;;4991917;28;20089;-47
2021/03/21 07:48:14;;;;;;;69.57;63.53;;;;;;;;;;4992532;28;20509;-47
2021/03/21 07:50:55;;;;;;;26.50;18.92;;;;;;;;;;4991777;28;20486;-47
2021/03/21 07:53:21;;;;;;;28.85;19.33;;;;;;;;;;4991861;28;20038;-47
2021/03/21 07:55:53;;;;;;;26.23;18.55;;;;;;;;;;4992122;28;20125;-47
2021/03/21 07:58:26;;;;;;;22.42;17.25;;;;;;;;;;4991748;28;21614;-47
2021/03/21 08:00:53;;;;;;;25.27;17.75;;;;;;;;;;4991697;28;20030;-48
2021/03/21 08:03:21;;;;;;;37.97;19.70;;;;;;;;;;4991777;28;20528;-47
2021/03/21 08:05:50;;;;;;;34.70;21.90;;;;;;;;;;4991711;28;20109;-47
2021/03/21 08:08:20;;;;;;;30.48;20.70;;;;;;;;;;4991793;28;20162;-47
2021/03/21 08:10:52;;;;;;;26.80;18.30;;;;;;;;;;4991478;28;20157;-48
2021/03/21 08:13:32;;;;;;;29.13;18.55;;;;;;;;;;4991576;28;20034;-48
2021/03/21 08:16:00;;;;;;;34.22;19.45;;;;;;;;;;4991715;28;20150;-47
2021/03/21 08:18:31;;;;;;;37.58;21.10;;;;;;;;;;5000800;28;20141;-47
2021/03/21 08:20:58;;;;;;;33.08;18.85;;;;;;;;;;5015180;28;20022;-47
2021/03/21 08:23:38;;;;;;;32.00;19.25;;;;;;;;;;5017440;28;20049;-46
2021/03/21 08:26:10;;;;;;;29.80;18.98;;;358.50;819.20;;;;;;5017501;28;20034;-47
2021/03/21 08:29:10;;;;;;;33.65;20.48;;;333.40;844.80;;;;;;5017251;28;20029;-47
2021/03/21 08:31:39;;;;;;;32.08;19.70;;;333.50;844.80;;;;;;5017326;28;20033;-47
2021/03/21 08:34:38;;;;;;;34.00;20.25;;;;;;;;;;5017141;28;20030;-47
2021/03/21 08:37:41;;;;;;;34.70;20.27;;;358.40;844.80;;;;;;4995459;28;20042;-47
2021/03/21 08:40:33;;;;;;;31.25;20.85;;;333.50;844.80;;;;;;4994248;28;20045;-46
2021/03/21 08:43:16;;;;;;;27.92;18.50;;;358.40;844.80;;;;;;4987474;28;20030;-47
2021/03/21 08:46:10;;;;;;;30.60;19.67;;;358.80;819.20;;;;;;4994646;28;20062;-47
2021/03/21 08:48:41;;;;;;;48.75;25.52;;;359.10;793.60;;;;;;4918132;29;20104;-48
2021/03/21 08:51:12;;;;;;;42.13;25.90;;;358.80;793.60;;;;;;4918164;29;20141;-48
2021/03/21 08:54:02;;;;;;;48.40;28.60;;;333.60;844.80;;;;;;4912091;29;20068;-48
2021/03/21 08:56:31;;;;;;;49.75;31.55;;;333.20;870.40;;;;;;4906013;29;20111;-48
2021/03/21 08:59:17;;;;;;;36.70;24.25;;;332.80;921.60;;;;;;4904430;29;20028;-48
2021/03/21 09:02:05;;;;;;;40.97;25.48;;;308.00;896.00;;;;;;4899062;29;20056;-48
2021/03/21 09:04:32;;;;;;;54.03;32.78;;;;;;;;;;4898851;29;20032;-48
2021/03/21 09:07:15;;;;;;;45.58;28.77;;;;;;;;;;4898976;29;20094;-49
2021/03/21 09:09:42;;;;;;;58.83;33.95;;;;;;;;;;4899139;29;20171;-52
2021/03/21 09:12:23;;;;;;;37.17;22.63;;;;;;;;;;4904026;29;20575;-47
2021/03/21 09:14:49;;;;;;;;;;;;;;;;;;4918559;29;20028;-48
2021/03/21 09:17:25;;;;;;;119.05;55.05;;;;;;;;;;4917715;29;19907;-50
2021/03/21 09:19:58;;;;;;;60.22;32.75;;;;;;;;;;4917740;29;20083;-49
2021/03/21 09:22:33;;;;;;;58.28;33.58;;;;;;;;;;4917681;29;20508;-50
2021/03/21 09:25:00;;;;;;;92.65;51.40;;;;;;;;;;4939644;28;20046;-49
2021/03/21 09:27:37;;;;;;;47.90;28.20;;;;;;;;;;4996555;28;20030;-50
2021/03/21 09:30:19;;;;;;;64.82;34.45;;;;;;;;;;4996341;28;20041;-51
2021/03/21 09:32:47;;;;;;;45.92;25.40;;;;;;;;;;4995766;28;20034;-50
2021/03/21 09:35:30;;;;;;;57.78;33.03;;;;;;;;;;4995970;28;20060;-45
2021/03/21 09:37:58;;;;;;;35.83;22.60;;;;;;;;;;4996141;28;20109;-48
2021/03/21 09:40:24;;;;;;;40.67;22.05;;;;;;;;;;4996392;28;20081;-48
2021/03/21 09:42:51;;;;;;;46.42;24.52;;;;;;;;;;4996115;28;20037;-48
2021/03/21 09:45:17;;;;;;;54.80;27.00;;;;;;;;;;4996112;28;20042;-49
2021/03/21 09:47:46;;;;;;;51.95;30.27;;;;;;;;;;4996068;28;20061;-47
2021/03/21 09:50:30;;;;;;;41.70;25.55;;;;;;;;;;4995887;28;20036;-47
2021/03/21 09:53:15;;;;;;;49.30;28.15;;;;;;;;;;5014213;28;20076;-48
2021/03/21 09:55:44;;;;;;;50.17;28.02;;;;;;;;;;5015543;28;20030;-47
2021/03/21 09:58:25;;;;;;;88.72;49.35;;;;;;;;;;5015366;28;20036;-48
2021/03/21 10:00:51;;;;;;;;;;;;;;;;;;5015962;28;20029;-48
2021/03/21 10:03:17;;;;;;;56.53;32.72;;;;;;;;;;5015147;28;19909;-48
2021/03/21 10:05:54;;;;;;;71.78;37.75;;;;;;;;;;5014990;28;20037;-48
2021/03/21 10:08:25;;;;;;;76.40;36.08;;;;;;;;;;5015289;28;20046;-48
2021/03/21 10:10:59;;;;;;;48.13;25.98;;;;;;;;;;5014750;28;20109;-48
2021/03/21 10:13:36;;;;;;;45.83;24.83;;;;;;;;;;5015091;28;20033;-47
2021/03/21 10:16:22;;;;;;;73.47;36.28;;;;;;;;;;5015162;28;20109;-47
2021/03/21 10:18:56;;;;;;;74.20;41.03;;;;;;;;;;5007942;28;20042;-47
2021/03/21 10:21:25;;;;;;;55.35;32.85;;;;;;;;;;5014504;28;20022;-47
2021/03/21 10:23:51;;;;;;;55.17;29.98;;;;;;;;;;5015063;28;20072;-48
2021/03/21 10:26:21;;;;;;;64.07;35.08;;;;;;;;;;5015079;28;20037;-47
2021/03/21 10:28:49;;;;;;;75.93;37.22;;;;;;;;;;5014751;28;20029;-47
2021/03/21 10:31:25;;;;;;;62.88;33.45;;;;;;;;;;5014947;28;20037;-47
2021/03/21 10:34:04;;;;;;;53.25;30.63;;;;;;;;;;5014835;28;20022;-48
2021/03/21 10:36:42;;;;;;;47.65;28.05;;;;;;;;;;5014769;28;20466;-48
2021/03/21 10:39:11;;;;;;;44.83;26.40;;;;;;;;;;5014709;28;20041;-48
2021/03/21 10:41:52;;;;;;;79.30;43.40;;;;;;;;;;5014583;28;20034;-48
2021/03/21 10:44:19;;;;;;;72.47;39.85;;;;;;;;;;5013581;28;20018;-47
2021/03/21 10:46:45;;;;;;;55.97;32.40;;;;;;;;;;5014593;28;20022;-47
2021/03/21 10:49:11;;;;;;;49.03;29.52;;;;;;;;;;5014480;28;20529;-47
2021/03/21 10:51:56;;;;;;;43.65;25.52;;;;;;;;;;5013970;28;20040;-48
2021/03/21 10:54:25;;;;;;;48.08;30.38;;;;;;;;;;5014497;28;20034;-47
2021/03/21 10:57:09;;;;;;;52.30;29.52;;;;;;;;;;5014453;28;20033;-45
2021/03/21 10:59:38;;;;;;;263.60;142.20;;;;;;;;;;5014436;28;20026;-47
2021/03/21 11:02:24;;;;;;;44.63;26.52;;;;;;;;;;5014456;28;20378;-48
2021/03/21 11:05:07;;;;;;;60.33;34.55;;;;;;;;;;5014286;28;20026;-48
2021/03/21 11:07:33;;;;;;;42.90;25.95;;;;;;;;;;5014277;28;20045;-49
2021/03/21 11:10:06;;;;;;;36.20;20.92;;;;;;;;;;5014239;28;20044;-46
2021/03/21 11:12:37;;;;;;;58.47;28.17;;;;;;;;;;5014242;28;20042;-47
2021/03/21 11:15:20;;;;;;;51.80;30.38;;;;;;;;;;5014295;28;20026;-47
2021/03/21 11:17:49;;;;;;;50.13;25.58;;;;;;;;;;5013919;28;20023;-48
2021/03/21 11:20:26;;;;;;;46.47;24.95;;;;;;;;;;5014396;28;20117;-47
2021/03/21 11:22:52;;;;;;;41.78;25.10;;;;;;;;;;5013726;28;20046;-48
2021/03/21 11:25:33;;;;;;;45.50;26.67;;;;;;;;;;5013884;28;20033;-47
2021/03/21 11:27:59;;;;;;;59.83;32.90;;;;;;;;;;5013869;28;20022;-49
2021/03/21 11:30:28;;;;;;;56.25;31.25;;;;;;;;;;5013819;28;20037;-48
2021/03/21 11:33:13;;;;;;;78.43;45.30;;;;;;;;;;5014053;28;20045;-46
2021/03/21 11:35:39;;;;;;;44.35;25.92;;;;;;;;;;5013840;28;20053;-49
2021/03/21 11:38:23;;;;;;;36.58;20.23;;;;;;;;;;5013650;28;20032;-48
2021/03/21 11:40:53;;;;;;;109.53;60.72;;;;;;;;;;5012336;28;20117;-48
2021/03/21 11:43:19;;;;;;;100.72;51.72;;;;;;;;;;5013685;28;20062;-47
2021/03/21 11:45:46;;;;;;;37.90;21.02;;;;;;;;;;5013707;28;20045;-48
2021/03/21 11:48:21;;;;;;;39.28;22.00;;;;;;;;;;5013755;28;20018;-50
2021/03/21 11:50:48;;;;;;;41.53;25.67;;;;;;;;;;5013111;28;20050;-49
2021/03/21 11:53:15;;;;;;;41.53;25.15;;;;;;;;;;5013529;28;20034;-47
2021/03/21 11:55:43;;;;;;;81.30;39.05;;;;;;;;;;5013200;28;20028;-48
2021/03/21 11:58:15;;;;;;;76.05;36.55;;;;;;;;;;5013716;28;20041;-48
2021/03/21 12:00:43;;;;;;;87.55;42.95;;;;;;;;;;5013553;28;20071;-46
2021/03/21 12:03:09;;;;;;;46.58;26.88;;;;;;;;;;5013514;28;20026;-47
2021/03/21 12:05:37;;;;;;;50.75;28.42;;;;;;;;;;5013352;28;20038;-47
2021/03/21 12:08:23;;;;;;;66.63;34.15;;;;;;;;;;5013320;28;20025;-47
2021/03/21 12:10:52;;;;;;;57.15;26.33;;;;;;;;;;5013126;28;20458;-48
2021/03/21 12:13:38;;;;;;;57.15;28.95;;;;;;;;;;5013390;28;20447;-47
2021/03/21 12:16:06;;;;;;;61.35;32.53;;;;;;;;;;5013337;28;20053;-47
2021/03/21 12:18:33;;;;;;;48.00;26.05;;;;;;;;;;5013423;28;20026;-48
2021/03/21 12:21:09;;;;;;;153.30;75.22;;;;;;;;;;5012746;28;20572;-47
2021/03/21 12:23:41;;;;;;;56.90;28.35;;;;;;;;;;5013447;28;20033;-51
2021/03/21 12:26:08;;;;;;;95.78;50.55;;;;;;;;;;5013347;28;20398;-48
2021/03/21 12:28:37;;;;;;;29.45;16.90;;;;;;;;;;5013159;28;20062;-48
2021/03/21 12:31:26;;;;;;;77.55;36.03;;;;;;;;;;5013262;28;20022;-48
2021/03/21 12:33:55;;;;;;;80.85;42.38;;;;;;;;;;4972495;28;20050;-46
2021/03/21 12:36:26;;;;;;;79.13;35.83;;;;;;;;;;4969844;28;20046;-48
2021/03/21 12:38:55;;;;;;;80.28;39.42;;;;;;;;;;4940236;28;20101;-49
2021/03/21 12:41:25;;;;;;;34.03;18.27;;;;;;;;;;4928510;28;20042;-48
2021/03/21 12:44:23;;;;;;;24.58;15.57;;;;;;;;;;4939951;28;20031;-47
2021/03/21 12:47:06;;;;;;;37.05;21.17;;;;;;;;;;4849487;29;20561;-47
2021/03/21 12:49:38;;;;;;;43.13;22.50;;;;;;;;;;4848827;29;20518;-47
2021/03/21 12:52:06;;;;;;;40.88;21.60;;;;;;;;;;4849342;29;20045;-47
2021/03/21 12:54:32;;;;;;;44.90;24.67;;;;;;;;;;4848829;29;20124;-47
2021/03/21 12:56:59;;;;;;;56.88;28.67;;;;;;;;;;4849014;29;20326;-48
2021/03/21 12:59:27;;;;;;;66.45;34.38;;;;;;;;;;4848975;29;20029;-48
2021/03/21 13:01:54;;;;;;;54.03;29.13;;;;;;;;;;4849262;29;20035;-49
2021/03/21 13:04:20;;;;;;;35.25;21.17;;;;;;;;;;4848467;29;20041;-49
2021/03/21 13:06:46;;;;;;;53.80;28.92;;;;;;;;;;4849892;29;20160;-47
2021/03/21 13:09:12;;;;;;;43.03;23.85;;;;;;;;;;4834828;29;20523;-47
2021/03/21 13:11:38;;;;;;;40.33;23.23;;;;;;;;;;4892330;29;20055;-48
2021/03/21 13:14:05;;;;;;;42.28;22.25;;;;;;;;;;4905685;29;20134;-48
2021/03/21 13:16:32;;;;;;;37.63;22.25;;;;;;;;;;4906033;28;20028;-48
2021/03/21 13:19:00;;;;;;;37.30;19.63;;;;;;;;;;4905705;29;20038;-48
2021/03/21 13:21:26;;;;;;;36.38;21.48;;;;;;;;;;4908471;28;20027;-48
2021/03/21 13:23:52;;;;;;;42.33;22.02;;;;;;;;;;4991781;28;20033;-47
2021/03/21 13:26:19;;;;;;;46.17;23.70;;;;;;;;;;4991468;28;20143;-47
2021/03/21 13:28:47;;;;;;;62.63;29.75;;;;;;;;;;4991392;28;20564;-47
2021/03/21 13:31:13;;;;;;;38.83;19.40;;;;;;;;;;4991194;28;20024;-46
2021/03/21 13:33:39;;;;;;;40.20;20.60;;;;;;;;;;4991865;28;20469;-47
2021/03/21 13:36:07;;;;;;;40.55;22.52;;;;;;;;;;4991256;28;20181;-47
2021/03/21 13:38:34;;;;;;;30.58;18.27;;;;;;;;;;4991493;28;20724;-47
2021/03/21 13:41:01;;;;;;;36.05;21.60;;;;;;;;;;4991086;28;20029;-47
2021/03/21 13:43:27;;;;;;;36.03;20.05;;;;;;;;;;4991298;28;20033;-50
2021/03/21 13:45:55;;;;;;;36.03;18.85;;;;;;;;;;4991053;28;20042;-47
2021/03/21 13:48:21;;;;;;;24.23;14.85;;;;;;;;;;4991263;28;20014;-48
2021/03/21 13:50:48;;;;;;;32.70;18.17;;;;;;;;;;4990753;28;21018;-47
2021/03/21 13:53:15;;;;;;;37.10;21.25;;;;;;;;;;4990708;28;20026;-47
2021/03/21 13:55:42;;;;;;;32.42;17.88;;;;;;;;;;4991005;28;20742;-48
2021/03/21 13:58:09;;;;;;;33.97;20.73;;;;;;;;;;4990744;28;20030;-48
2021/03/21 14:00:36;;;;;;;35.35;21.25;;;;;;;;;;4990831;28;20069;-47
2021/03/21 14:03:02;;;;;;;31.58;18.73;;;;;;;;;;4990933;28;20639;-46
2021/03/21 14:05:29;;;;;;;36.67;21.60;;;;;;;;;;4990439;28;20108;-47
2021/03/21 14:07:55;;;;;;;26.02;15.48;;;;;;;;;;4990312;28;20021;-47
2021/03/21 14:10:22;;;;;;;34.38;19.30;;;;;;;;;;4990332;28;20048;-47
2021/03/21 14:12:48;;;;;;;39.85;21.65;;;;;;;;;;4990421;28;20104;-47
2021/03/21 14:15:19;;;;;;;44.22;22.83;;;;;;;;;;4990814;28;20116;-47
2021/03/21 14:17:46;;;;;;;39.00;22.05;;;;;;;;;;4990403;28;20030;-48
2021/03/21 14:20:12;;;;;;;33.75;19.13;;;;;;;;;;4990298;28;20076;-47
2021/03/21 14:22:40;;;;;;;49.42;25.10;;;;;;;;;;4990108;28;20112;-47
2021/03/21 14:25:07;;;;;;;53.45;26.73;;;;;;;;;;4990506;28;20026;-48
2021/03/21 14:27:36;;;;;;;44.95;24.52;;;;;;;;;;4990430;28;20064;-47
2021/03/21 14:30:03;;;;;;;61.05;28.90;;;;;;;;;;4993158;28;20030;-47
2021/03/21 14:32:29;;;;;;;49.15;24.48;;;;;;;;;;4990097;28;21183;-47
2021/03/21 14:34:57;;;;;;;63.10;31.23;;;;;;;;;;4990627;28;20133;-48
2021/03/21 14:37:23;;;;;;;45.92;23.23;;;;;;;;;;4989930;28;20481;-47
2021/03/21 14:39:51;;;;;;;41.67;22.52;;;;;;;;;;4990277;28;20029;-47
2021/03/21 14:42:17;;;;;;;50.97;27.50;;;;;;;;;;4990306;28;20034;-47